Time;durP1;ratioP1;P1;durP2;ratioP2;P2;SDS_P1;SDS_P2;PMS_P1;PMS_P2;Temp;Humidity;BMP_temperature;BMP_pressure;BME280_temperature;BME280_humidity;BME280_pressure;Samples;Min_cycle;Max_cycle;Signal;HPM_P1;HPM_P2
2022/02/02 00:01:18;;;;;;;20.50;13.85;;;;;;;;;;4989955;28;19926;-78
2022/02/02 00:03:50;;;;;;;18.90;13.25;;;;;;;;;;4971045;28;20066;-77
2022/02/02 00:06:26;;;;;;;19.42;13.30;;;;;;;;;;4989891;28;20405;-78
2022/02/02 00:09:06;;;;;;;15.85;10.70;;;;;;;;;;4988577;28;20057;-78
2022/02/02 00:14:34;;;;;;;26.98;15.95;;;;;;;;;;4990405;28;20049;-78
2022/02/02 00:16:56;;;;;;;25.67;16.42;;;;;;;;;;4985337;28;20034;-77
2022/02/02 00:21:53;;;;;;;34.22;19.73;;;;;;;;;;4990048;28;20084;-77
2022/02/02 00:24:27;;;;;;;31.08;17.02;;;;;;;;;;4984446;28;20030;-77
2022/02/02 00:26:56;;;;;;;29.83;17.48;;;;;;;;;;4989875;28;20630;-78
2022/02/02 00:29:30;;;;;;;26.33;14.25;;;;;;;;;;4975274;28;20390;-77
2022/02/02 00:32:04;;;;;;;18.17;10.27;;;;;;;;;;4983962;28;20034;-77
2022/02/02 00:34:31;;;;;;;20.85;13.00;;;;;;;;;;4989884;28;20030;-77
2022/02/02 00:36:58;;;;;;;16.38;11.27;;;;;;;;;;4978015;28;20597;-77
2022/02/02 00:39:25;;;;;;;18.83;12.90;;;;;;;;;;4990223;28;20081;-77
2022/02/02 00:41:56;;;;;;;19.98;15.30;;;;;;;;;;4984168;28;20031;-77
2022/02/02 00:44:22;;;;;;;21.85;14.93;;;;;;;;;;4984743;28;20044;-78
2022/02/02 00:46:48;;;;;;;16.73;9.85;;;;;;;;;;4985708;28;20763;-78
2022/02/02 00:49:14;;;;;;;18.70;10.43;;;;;;;;;;4974422;28;20077;-78
2022/02/02 00:51:49;;;;;;;14.18;9.55;;;;;;;;;;4983707;28;20034;-77
2022/02/02 00:54:17;;;;;;;19.92;12.30;;;;;;;;;;4988177;28;20034;-77
2022/02/02 00:56:43;;;;;;;17.92;12.55;;;;;;;;;;4989326;28;20444;-77
2022/02/02 00:59:10;;;;;;;23.30;12.80;;;;;;;;;;4989553;28;20044;-77
2022/02/02 01:01:36;;;;;;;30.30;20.65;;;;;;;;;;4974487;28;20118;-77
2022/02/02 01:04:02;;;;;;;18.02;11.90;;;;;;;;;;4987793;28;20121;-77
2022/02/02 01:06:31;;;;;;;20.35;14.02;;;;;;;;;;4980934;28;20065;-77
2022/02/02 01:30:08;;;;;;;18.35;11.80;;;;;;;;;;4979256;28;20045;-77
2022/02/02 01:32:34;;;;;;;17.70;12.88;;;;;;;;;;4986090;28;20030;-77
2022/02/02 01:35:00;;;;;;;17.50;12.93;;;;;;;;;;4991967;28;20030;-77
2022/02/02 01:37:27;;;;;;;18.00;11.57;;;;;;;;;;4991779;28;20042;-77
2022/02/02 01:40:06;;;;;;;17.80;12.30;;;;;;;;;;4993304;28;20076;-77
2022/02/02 01:42:41;;;;;;;30.40;18.88;;;;;;;;;;4973554;28;20690;-77
2022/02/02 01:45:16;;;;;;;23.00;13.95;;;;;;;;;;4973761;28;20031;-77
2022/02/02 01:47:54;;;;;;;22.25;15.93;;;;;;;;;;4986124;28;20049;-77
2022/02/02 01:50:23;;;;;;;21.02;15.90;;;;;;;;;;4978121;28;20030;-77
2022/02/02 01:55:38;;;;;;;25.02;19.60;;;;;;;;;;4992972;28;20034;-77
2022/02/02 01:58:39;;;;;;;28.90;22.45;;;;;;;;;;4992333;28;20038;-77
2022/02/02 02:00:50;;;;;;;23.25;17.55;;;;;;;;;;4987454;28;20041;-77
2022/02/02 02:03:16;;;;;;;24.15;16.45;;;;;;;;;;4973267;28;20042;-77
2022/02/02 02:05:42;;;;;;;29.33;18.63;;;;;;;;;;4983208;28;20077;-77
2022/02/02 02:08:09;;;;;;;21.38;15.68;;;;;;;;;;4988304;28;20038;-77
2022/02/02 02:10:35;;;;;;;21.67;16.25;;;;;;;;;;4992784;28;20130;-77
2022/02/02 02:13:08;;;;;;;23.50;16.90;;;;;;;;;;4984746;28;20058;-77
2022/02/02 02:15:34;;;;;;;23.13;14.50;;;;;;;;;;4992380;28;20033;-77
2022/02/02 02:18:01;;;;;;;21.73;15.00;;;;;;;;;;4985071;28;20482;-77
2022/02/02 02:20:28;;;;;;;20.60;12.70;;;;;;;;;;4973080;28;20035;-77
2022/02/02 02:22:54;;;;;;;23.45;16.70;;;;;;;;;;4991848;28;20046;-77
2022/02/02 02:25:21;;;;;;;29.80;16.80;;;;;;;;;;4991751;28;20030;-77
2022/02/02 02:27:47;;;;;;;42.30;24.60;;;;;;;;;;4990584;28;20046;-77
2022/02/02 02:30:23;;;;;;;20.45;15.23;;;;;;;;;;4972854;28;20039;-77
2022/02/02 02:57:15;;;;;;;35.45;24.30;;;;;;;;;;4987351;28;20056;-77
2022/02/02 02:59:44;;;;;;;39.63;25.50;;;;;;;;;;4991301;28;20030;-77
2022/02/02 03:49:26;;;;;;;18.83;12.95;;;;;;;;;;4990425;28;20093;-76
2022/02/02 03:54:23;;;;;;;18.70;12.52;;;;;;;;;;4991166;28;20050;-76
2022/02/02 03:59:32;;;;;;;14.52;8.90;;;;;;;;;;4990742;28;20050;-77
2022/02/02 04:02:40;;;;;;;14.75;9.27;;;;;;;;;;4979102;28;20030;-77
2022/02/02 04:07:51;;;;;;;8.98;6.07;;;;;;;;;;4974046;28;20126;-77
2022/02/02 04:10:17;;;;;;;11.50;7.75;;;;;;;;;;4975139;28;20540;-77
2022/02/02 04:51:36;;;;;;;12.27;8.38;;;;;;;;;;4970709;28;20219;-78
2022/02/02 04:54:29;;;;;;;28.83;17.30;;;;;;;;;;4970060;28;20043;-78
2022/02/02 04:59:51;;;;;;;20.00;12.95;;;;;;;;;;4990107;28;20105;-77
2022/02/02 05:16:01;;;;;;;16.65;10.30;;;;;;;;;;4978668;28;20129;-77
2022/02/02 05:18:56;;;;;;;17.05;10.40;;;;;;;;;;4980976;28;20409;-77
2022/02/02 05:53:28;;;;;;;11.60;8.40;;;;;;;;;;4989635;28;20070;-78
2022/02/02 05:55:54;;;;;;;14.13;9.30;;;;;;;;;;4976728;28;20035;-78
2022/02/02 05:58:25;;;;;;;21.88;13.20;;;;;;;;;;4973295;28;20051;-78
2022/02/02 06:00:53;;;;;;;31.02;19.83;;;;;;;;;;4982777;28;20092;-78
2022/02/02 06:03:19;;;;;;;55.42;32.63;;;;;;;;;;5011347;28;20034;-78
2022/02/02 06:05:45;;;;;;;44.30;25.17;;;;;;;;;;4982043;28;20248;-78
2022/02/02 06:08:16;;;;;;;26.38;17.20;;;;;;;;;;4975558;28;20042;-78
2022/02/02 06:10:43;;;;;;;27.55;18.52;;;;;;;;;;4991775;28;20030;-78
2022/02/02 06:13:09;;;;;;;25.67;16.95;;;;;;;;;;4973216;28;20046;-79
2022/02/02 06:15:36;;;;;;;14.05;9.63;;;;;;;;;;4975005;28;20475;-78
2022/02/02 06:18:04;;;;;;;16.52;12.73;;;;;;;;;;4984307;28;20753;-78
2022/02/02 06:20:30;;;;;;;16.48;12.23;;;;;;;;;;4989663;28;20026;-78
2022/02/02 06:23:13;;;;;;;11.35;7.10;;;;;;;;;;4986680;28;20705;-78
2022/02/02 06:25:42;;;;;;;15.88;12.05;;;;;;;;;;4983642;28;20097;-78
2022/02/02 06:28:09;;;;;;;21.23;14.50;;;;;;;;;;4984668;28;20076;-78
2022/02/02 06:30:35;;;;;;;22.17;16.10;;;;;;;;;;4989827;28;20494;-78
2022/02/02 06:33:08;;;;;;;27.67;18.50;;;;;;;;;;4985098;28;20038;-77
2022/02/02 06:35:35;;;;;;;31.75;21.80;;;;;;;;;;4981896;28;20072;-76
2022/02/02 06:38:01;;;;;;;27.48;16.27;;;;;;;;;;4976456;28;20113;-77
2022/02/02 06:40:28;;;;;;;21.67;13.18;;;;;;;;;;4984306;28;20081;-78
2022/02/02 06:42:55;;;;;;;21.00;14.23;;;;;;;;;;4989436;28;20498;-78
2022/02/02 06:45:21;;;;;;;27.95;16.15;;;;;;;;;;4986925;28;20109;-80
2022/02/02 06:47:47;;;;;;;22.63;13.18;;;;;;;;;;4986591;28;20065;-80
2022/02/02 06:53:17;;;;;;;22.00;13.48;;;;;;;;;;4987800;28;20140;-80
2022/02/02 06:56:02;;;;;;;24.48;13.27;;;;;;;;;;4952707;28;20057;-80
2022/02/02 06:58:46;;;;;;;27.27;16.90;;;;;;;;;;4967615;28;20980;-80
2022/02/02 07:01:41;;;;;;;20.73;13.68;;;;;;;;;;4976797;28;20474;-79
2022/02/02 07:04:24;;;;;;;22.95;15.45;;;;;;;;;;4982802;28;20031;-80
2022/02/02 07:07:10;;;;;;;30.20;17.70;;;;;;;;;;4992503;28;20044;-80
2022/02/02 07:10:10;;;;;;;34.38;20.75;;;;;;;;;;4984255;28;20130;-79
2022/02/02 07:12:44;;;;;;;;;;;;;;;;;;4983555;28;20043;-80
2022/02/02 07:15:24;;;;;;;43.33;25.08;;;;;;;;;;4960133;28;19918;-79
2022/02/02 07:18:09;;;;;;;32.33;23.08;;;;;;;;;;4970713;28;20038;-80
2022/02/02 07:20:48;;;;;;;26.58;19.38;;;;;;;;;;4985624;28;20029;-79
2022/02/02 07:23:29;;;;;;;37.08;25.40;;;;;;;;;;4970876;28;20042;-80
2022/02/02 07:28:53;;;;;;;16.73;11.18;;;;;;;;;;4987078;28;20038;-80
2022/02/02 07:34:42;;;;;;;20.58;15.68;;;;;;;;;;4944373;28;20075;-81
2022/02/02 07:37:13;;;;;;;22.25;15.80;;;;;;;;;;4978325;28;20477;-80
2022/02/02 07:39:42;;;;;;;28.00;19.58;;;;;;;;;;4959910;28;20042;-80
2022/02/02 07:42:10;;;;;;;27.75;18.20;;;;;;;;;;4964871;28;20034;-80
2022/02/02 07:44:38;;;;;;;20.67;11.82;;;;;;;;;;4989038;28;20382;-80
2022/02/02 07:47:09;;;;;;;17.00;11.38;;;;;;;;;;4991454;28;20504;-79
2022/02/02 07:49:38;;;;;;;26.63;17.73;;;;;;;;;;4968833;28;20585;-80
2022/02/02 07:52:06;;;;;;;21.90;13.98;;;;;;;;;;4974733;28;20092;-80
2022/02/02 07:54:39;;;;;;;24.48;14.85;;;;;;;;;;4980923;28;20027;-80
2022/02/02 07:57:14;;;;;;;22.98;12.05;;;;;;;;;;4972119;28;20047;-80
2022/02/02 07:59:53;;;;;;;20.67;11.07;;;;;;;;;;4983562;28;20068;-80
2022/02/02 08:02:24;;;;;;;19.30;10.23;;;;;;;;;;4967720;28;20492;-80
2022/02/02 08:04:50;;;;;;;14.50;8.52;;;;;;;;;;4979884;28;20041;-80
2022/02/02 08:07:24;;;;;;;17.52;9.50;;;;;;;;;;4972722;28;20030;-80
2022/02/02 08:10:04;;;;;;;13.45;8.63;;;;;;;;;;4976791;28;20026;-80
2022/02/02 08:12:33;;;;;;;13.23;8.85;;;;;;;;;;4971664;28;20113;-80
2022/02/02 08:14:59;;;;;;;18.77;10.13;;;;;;;;;;4970839;28;20041;-80
2022/02/02 08:17:25;;;;;;;15.52;8.80;;;;;;;;;;4988880;28;20097;-80
2022/02/02 08:19:52;;;;;;;15.32;9.55;;;;;;;;;;4974025;28;20845;-80
2022/02/02 08:22:18;;;;;;;26.95;13.18;;;;;;;;;;4959245;28;20038;-80
2022/02/02 08:24:44;;;;;;;40.03;25.67;;;;;;;;;;4989652;28;20800;-80
2022/02/02 08:27:10;;;;;;;36.33;21.95;;;;;;;;;;4978152;28;20492;-80
2022/02/02 08:29:36;;;;;;;27.73;19.60;;;;;;;;;;4974373;28;20104;-80
2022/02/02 08:32:04;;;;;;;30.63;18.58;;;;;;;;;;4980850;28;20082;-79
2022/02/02 08:34:30;;;;;;;46.05;28.35;;;;;;;;;;4978731;28;20029;-80
2022/02/02 08:36:57;;;;;;;37.47;25.52;;;;;;;;;;4983689;28;20045;-80
2022/02/02 08:42:12;;;;;;;25.27;18.67;;;;;;;;;;4984593;28;20050;-80
2022/02/02 08:47:32;;;;;;;24.67;16.10;;;;;;;;;;4947254;28;20479;-80
2022/02/02 08:50:01;;;;;;;26.30;18.48;;;;;;;;;;4966309;28;20549;-80
2022/02/02 08:52:39;;;;;;;28.98;19.33;;;;;;;;;;4970567;28;20101;-79
2022/02/02 08:55:07;;;;;;;25.50;16.40;;;;;;;;;;4959432;28;20030;-80
2022/02/02 08:58:07;;;;;;;33.10;17.20;;;;;;;;;;4967868;28;20119;-80
2022/02/02 09:00:35;;;;;;;32.65;20.05;;;;;;;;;;4977456;28;20133;-80
2022/02/02 09:05:46;;;;;;;42.47;31.75;;;;;;;;;;4976370;28;20037;-79
2022/02/02 09:08:12;;;;;;;43.25;31.35;;;;;;;;;;4966459;28;20038;-80
2022/02/02 09:24:34;;;;;;;52.30;42.53;;;;;;;;;;4974242;28;20390;-80
2022/02/02 09:34:56;;;;;;;45.55;31.65;;;;;;;;;;4986754;28;20709;-80
2022/02/02 09:37:23;;;;;;;36.00;27.30;;;;;;;;;;4962312;28;20129;-80
2022/02/02 09:40:01;;;;;;;15.43;11.55;;;;;;;;;;4969423;28;20393;-80
2022/02/02 09:42:31;;;;;;;14.45;5.97;;;;;;;;;;4981979;28;20041;-80
2022/02/02 09:44:58;;;;;;;7.95;5.05;;;;;;;;;;4965803;28;20074;-80
2022/02/02 09:47:34;;;;;;;9.55;4.93;;;;;;;;;;4959647;28;20030;-80
2022/02/02 09:50:12;;;;;;;37.90;26.80;;;;;;;;;;4980628;28;20169;-80
2022/02/02 09:52:42;;;;;;;27.00;19.98;;;;;;;;;;4971916;28;20042;-80
2022/02/02 09:55:16;;;;;;;6.43;3.65;;;;;;;;;;4970486;28;20450;-80
2022/02/02 10:08:24;;;;;;;29.48;20.92;;;;;;;;;;4984165;28;20038;-80
2022/02/02 10:10:59;;;;;;;28.23;20.23;;;;;;;;;;4966408;28;20048;-80
2022/02/02 10:14:15;;;;;;;11.00;6.60;;;;;;;;;;4964544;28;20034;-80
2022/02/02 10:16:15;;;;;;;9.38;4.63;;;;;;;;;;4982484;28;20050;-80
2022/02/02 10:18:41;;;;;;;16.15;9.75;;;;;;;;;;4990226;28;20030;-80
2022/02/02 10:21:07;;;;;;;14.07;9.63;;;;;;;;;;4973757;28;20879;-80
2022/02/02 10:23:34;;;;;;;26.42;19.00;;;;;;;;;;4959966;28;20779;-80
2022/02/02 10:26:14;;;;;;;17.52;11.50;;;;;;;;;;4975810;28;20141;-80
2022/02/02 10:28:40;;;;;;;21.40;12.18;;;;;;;;;;4970825;28;20638;-80
2022/02/02 10:31:07;;;;;;;30.20;19.63;;;;;;;;;;4980005;28;20097;-80
2022/02/02 10:33:34;;;;;;;36.00;26.25;;;;;;;;;;4992435;28;20038;-80
2022/02/02 10:36:17;;;;;;;22.52;17.30;;;;;;;;;;4980620;28;20046;-80
2022/02/02 10:38:59;;;;;;;19.13;12.52;;;;;;;;;;4969595;28;20101;-80
2022/02/02 10:41:34;;;;;;;11.32;6.45;;;;;;;;;;4967831;28;20127;-80
2022/02/02 10:44:13;;;;;;;13.65;9.25;;;;;;;;;;4955822;28;20701;-80
2022/02/02 10:46:55;;;;;;;25.85;17.00;;;;;;;;;;4973095;28;20037;-80
2022/02/02 10:49:29;;;;;;;21.42;10.35;;;;;;;;;;4974597;28;20041;-79
2022/02/02 10:52:02;;;;;;;14.00;8.48;;;;;;;;;;4974735;28;20066;-80
2022/02/02 11:07:36;;;;;;;8.68;5.28;;;;;;;;;;4983744;28;20481;-80
2022/02/02 11:10:03;;;;;;;12.80;8.35;;;;;;;;;;4990198;28;20050;-80
2022/02/02 11:12:32;;;;;;;9.43;5.90;;;;;;;;;;4986905;28;20109;-79
2022/02/02 11:15:01;;;;;;;9.90;4.38;;;;;;;;;;4988495;28;20030;-80
2022/02/02 11:17:33;;;;;;;7.18;4.72;;;;;;;;;;4989301;28;20050;-80
2022/02/02 11:20:01;;;;;;;12.38;6.70;;;;;;;;;;4988579;28;20042;-80
2022/02/02 11:22:32;;;;;;;11.90;5.50;;;;;;;;;;4973159;28;20042;-80
2022/02/02 11:24:59;;;;;;;11.30;6.40;;;;;;;;;;4975817;28;20027;-80
2022/02/02 11:27:33;;;;;;;11.85;8.10;;;;;;;;;;4977061;28;20034;-80
2022/02/02 11:29:59;;;;;;;8.60;6.05;;;;;;;;;;4989814;28;20052;-81
2022/02/02 11:32:38;;;;;;;19.55;14.98;;;;;;;;;;4991809;28;20034;-80
2022/02/02 11:35:22;;;;;;;22.35;17.02;;;;;;;;;;4979539;28;20038;-81
2022/02/02 11:37:59;;;;;;;22.15;15.40;;;;;;;;;;4990504;28;20053;-80
2022/02/02 11:40:27;;;;;;;10.05;6.38;;;;;;;;;;4972339;28;20031;-80
2022/02/02 11:45:41;;;;;;;11.30;5.60;;;;;;;;;;4977872;28;20122;-80
2022/02/02 11:48:14;;;;;;;8.13;4.38;;;;;;;;;;4974064;28;20038;-80
2022/02/02 11:50:47;;;;;;;7.13;4.10;;;;;;;;;;4973441;28;20117;-80
2022/02/02 11:53:33;;;;;;;7.57;3.90;;;;;;;;;;4989748;28;20446;-80
2022/02/02 11:56:06;;;;;;;6.47;3.85;;;;;;;;;;4974708;28;20056;-81
2022/02/02 11:58:34;;;;;;;8.48;4.80;;;;;;;;;;4988943;28;20042;-80
2022/02/02 12:01:09;;;;;;;15.55;10.15;;;;;;;;;;4959041;28;20035;-80
2022/02/02 12:04:39;;;;;;;15.95;11.70;;;;;;;;;;4973854;28;20027;-80
2022/02/02 12:57:37;;;;;;;11.30;7.75;;;;;;;;;;4970925;28;20652;-81
2022/02/02 13:00:12;;;;;;;10.13;7.28;;;;;;;;;;4953636;28;20477;-81
2022/02/02 13:02:39;;;;;;;10.82;7.68;;;;;;;;;;4958733;28;20461;-80
2022/02/02 13:05:07;;;;;;;9.75;7.22;;;;;;;;;;4985795;28;20050;-80
2022/02/02 13:07:33;;;;;;;11.85;8.45;;;;;;;;;;4970872;28;20054;-81
2022/02/02 13:10:01;;;;;;;12.45;6.10;;;;;;;;;;4953533;28;20073;-81
2022/02/02 13:12:28;;;;;;;11.70;6.45;;;;;;;;;;4965197;28;20125;-80
2022/02/02 13:15:11;;;;;;;11.60;6.75;;;;;;;;;;4953152;28;20030;-81
2022/02/02 13:17:47;;;;;;;14.43;8.40;;;;;;;;;;4966847;28;20465;-81
2022/02/02 13:20:18;;;;;;;17.95;9.85;;;;;;;;;;4953435;28;20043;-80
2022/02/02 13:22:50;;;;;;;9.20;6.22;;;;;;;;;;4953110;28;20050;-81
2022/02/02 13:25:20;;;;;;;10.00;6.47;;;;;;;;;;4961736;28;20030;-80
2022/02/02 13:27:49;;;;;;;9.55;5.13;;;;;;;;;;4983886;28;20096;-80
2022/02/02 13:30:34;;;;;;;14.82;7.40;;;;;;;;;;4974102;28;20109;-81
2022/02/02 13:33:09;;;;;;;12.25;5.90;;;;;;;;;;4982360;28;20026;-80
2022/02/02 13:35:43;;;;;;;10.43;6.20;;;;;;;;;;4984103;28;20501;-80
2022/02/02 13:38:35;;;;;;;13.73;7.63;;;;;;;;;;4985564;28;20065;-80
2022/02/02 13:47:03;;;;;;;9.27;5.63;;;;;;;;;;4993557;28;20422;-80
2022/02/02 13:52:10;;;;;;;16.20;8.70;;;;;;;;;;4974789;28;20148;-81
2022/02/02 13:54:49;;;;;;;11.33;8.10;;;;;;;;;;4958267;28;20043;-81
2022/02/02 14:00:29;;;;;;;13.95;10.88;;;;;;;;;;4944903;28;20039;-81
2022/02/02 14:06:04;;;;;;;17.05;11.27;;;;;;;;;;4958152;28;20050;-80
2022/02/02 14:33:21;;;;;;;9.05;4.70;;;;;;;;;;4970948;28;20037;-81
2022/02/02 14:35:47;;;;;;;8.38;4.07;;;;;;;;;;4970316;28;20078;-81
2022/02/02 14:38:15;;;;;;;6.40;3.95;;;;;;;;;;4952311;29;20035;-82
2022/02/02 14:43:14;;;;;;;7.22;3.20;;;;;;;;;;4967853;28;20041;-81
2022/02/02 14:45:46;;;;;;;6.72;3.10;;;;;;;;;;4968892;28;20022;-81
2022/02/02 14:48:50;;;;;;;10.88;3.92;;;;;;;;;;4964160;28;20057;-82
2022/02/02 14:54:02;;;;;;;8.35;4.63;;;;;;;;;;4954661;28;20050;-81
2022/02/02 15:05:16;;;;;;;9.88;5.63;;;;;;;;;;4980719;28;20114;-81
2022/02/02 15:29:58;;;;;;;18.60;13.07;;;;;;;;;;4990221;28;20077;-81
2022/02/02 15:32:26;;;;;;;14.45;10.77;;;;;;;;;;4990101;28;20615;-81
2022/02/02 15:34:56;;;;;;;16.70;10.85;;;;;;;;;;4980455;28;20037;-81
2022/02/02 15:37:27;;;;;;;21.58;15.27;;;;;;;;;;4966929;28;20049;-81
2022/02/02 15:40:02;;;;;;;19.25;14.40;;;;;;;;;;4954744;28;20109;-81
2022/02/02 15:58:54;;;;;;;35.67;23.67;;;;;;;;;;4978688;28;20077;-81
2022/02/02 16:03:54;;;;;;;26.70;19.05;;;;;;;;;;4983250;28;20070;-81
2022/02/02 16:06:23;;;;;;;26.70;16.52;;;;;;;;;;4974516;28;20035;-81
2022/02/02 16:08:58;;;;;;;24.50;15.13;;;;;;;;;;4976460;28;20827;-81
2022/02/02 16:11:27;;;;;;;21.00;15.80;;;;;;;;;;4972913;28;20042;-81
2022/02/02 16:13:58;;;;;;;22.02;16.58;;;;;;;;;;4967226;28;20030;-81
2022/02/02 16:37:36;;;;;;;;;;;;;;;;;;4983161;28;20086;-81
2022/02/02 16:40:04;;;;;;;37.22;25.17;;;;;;;;;;4968871;28;19953;-82
2022/02/02 16:45:16;;;;;;;45.28;29.05;;;;;;;;;;4984456;28;20046;-81
2022/02/02 16:47:42;;;;;;;42.08;26.77;;;;;;;;;;4964360;28;20616;-81
2022/02/02 16:50:13;;;;;;;36.85;24.38;;;;;;;;;;4968202;28;20039;-81
2022/02/02 16:52:39;;;;;;;34.80;22.00;;;;;;;;;;4977179;28;20101;-81
2022/02/02 16:55:12;;;;;;;31.60;19.48;;;;;;;;;;4967578;28;20093;-81
2022/02/02 16:57:50;;;;;;;21.98;15.48;;;;;;;;;;4977506;28;20077;-81
2022/02/02 17:27:35;;;;;;;35.10;26.05;;;;;;;;;;4975019;28;20050;-79
2022/02/02 17:30:30;;;;;;;35.65;27.52;;;;;;;;;;4975174;28;20082;-79
2022/02/02 17:33:18;;;;;;;39.08;27.45;;;;;;;;;;4981041;28;20023;-79
2022/02/02 17:36:05;;;;;;;43.25;33.10;;;;;;;;;;4970331;28;20538;-79
2022/02/02 17:38:48;;;;;;;55.35;42.40;;;;;;;;;;4981162;28;20122;-79
2022/02/02 18:19:18;;;;;;;38.13;29.85;;;;;;;;;;4987461;28;20073;-80
2022/02/02 18:21:44;;;;;;;37.47;27.63;;;;;;;;;;4989092;28;20035;-79
2022/02/02 18:26:50;;;;;;;37.17;26.13;;;;;;;;;;4992660;28;20046;-79
2022/02/02 18:29:27;;;;;;;32.72;24.33;;;;;;;;;;4989780;28;20030;-79
2022/02/02 18:32:27;;;;;;;40.33;29.52;;;;;;;;;;4978002;28;20038;-80
2022/02/02 18:34:58;;;;;;;41.55;30.73;;;;;;;;;;4976046;28;20027;-80
2022/02/02 18:48:36;;;;;;;42.25;27.27;;;;;;;;;;4980320;28;20034;-80
2022/02/02 18:51:11;;;;;;;37.03;26.08;;;;;;;;;;4973233;28;20109;-80
2022/02/02 18:59:02;;;;;;;46.05;32.38;;;;;;;;;;4986702;28;20050;-80
2022/02/02 19:55:46;;;;;;;41.67;27.98;;;;;;;;;;4985294;28;20049;-79
2022/02/02 20:11:38;;;;;;;79.30;50.13;;;;;;;;;;4982742;28;20603;-80
2022/02/02 20:14:04;;;;;;;59.08;38.42;;;;;;;;;;4980523;28;20053;-79
2022/02/02 20:16:30;;;;;;;50.97;35.45;;;;;;;;;;4984530;28;20034;-80
2022/02/02 20:18:59;;;;;;;58.92;39.55;;;;;;;;;;4989036;28;20042;-79
2022/02/02 20:21:47;;;;;;;37.70;24.40;;;;;;;;;;4975355;28;20105;-79
2022/02/02 20:24:13;;;;;;;40.20;25.88;;;;;;;;;;4991032;28;20026;-80
2022/02/02 20:26:41;;;;;;;38.50;23.90;;;;;;;;;;4983553;28;20062;-80
2022/02/02 20:29:07;;;;;;;37.88;25.98;;;;;;;;;;4974915;28;20126;-79
2022/02/02 20:31:33;;;;;;;46.33;32.05;;;;;;;;;;4980785;28;20130;-80
2022/02/02 20:34:00;;;;;;;55.47;35.10;;;;;;;;;;4980572;28;20126;-80
2022/02/02 20:36:26;;;;;;;57.60;36.70;;;;;;;;;;4977993;28;20038;-80
2022/02/02 20:38:52;;;;;;;54.78;34.17;;;;;;;;;;4982054;28;20034;-80
2022/02/02 20:41:18;;;;;;;65.47;39.00;;;;;;;;;;4984217;28;20070;-79
2022/02/02 20:44:05;;;;;;;56.90;34.63;;;;;;;;;;4987226;28;20122;-80
2022/02/02 21:03:19;;;;;;;38.85;27.85;;;;;;;;;;4976604;28;20551;-80
2022/02/02 21:06:01;;;;;;;50.22;30.85;;;;;;;;;;4976936;28;20110;-79
2022/02/02 21:11:32;;;;;;;143.23;72.57;;;;;;;;;;4982505;28;20061;-80
2022/02/02 21:13:58;;;;;;;45.35;26.70;;;;;;;;;;4988459;28;20072;-80
2022/02/02 21:16:28;;;;;;;42.03;26.38;;;;;;;;;;4984694;28;20049;-80
2022/02/02 21:18:57;;;;;;;47.70;29.17;;;;;;;;;;4985923;28;20362;-79
2022/02/02 21:21:35;;;;;;;67.22;40.10;;;;;;;;;;4985017;28;20699;-80
2022/02/02 21:29:00;;;;;;;58.13;37.03;;;;;;;;;;4990074;28;20045;-80
2022/02/02 21:31:26;;;;;;;58.72;34.63;;;;;;;;;;4988205;28;20030;-80
2022/02/02 21:33:52;;;;;;;62.83;37.50;;;;;;;;;;4977430;28;20031;-80
2022/02/02 21:36:18;;;;;;;69.63;43.70;;;;;;;;;;4971576;28;20042;-80
2022/02/02 21:39:04;;;;;;;54.15;32.15;;;;;;;;;;4981523;28;20430;-80
2022/02/02 21:41:35;;;;;;;48.90;27.92;;;;;;;;;;4978995;28;20031;-80
2022/02/02 21:44:03;;;;;;;45.47;26.60;;;;;;;;;;4976449;28;20027;-80
2022/02/02 21:46:29;;;;;;;53.80;26.55;;;;;;;;;;4969678;28;20529;-80
2022/02/02 21:48:56;;;;;;;35.10;19.40;;;;;;;;;;4984386;28;20034;-80
2022/02/02 21:51:36;;;;;;;33.97;18.60;;;;;;;;;;4978732;28;20037;-80
2022/02/02 21:54:03;;;;;;;31.05;19.30;;;;;;;;;;4974429;28;20058;-80
2022/02/02 21:56:29;;;;;;;40.20;24.42;;;;;;;;;;4981088;28;20050;-80
2022/02/02 21:58:55;;;;;;;36.80;22.67;;;;;;;;;;4983729;28;20046;-80
2022/02/02 22:01:21;;;;;;;43.45;26.35;;;;;;;;;;4984382;28;20041;-80
2022/02/02 22:03:47;;;;;;;44.38;28.25;;;;;;;;;;4988780;28;20039;-80
2022/02/02 22:06:13;;;;;;;49.38;31.17;;;;;;;;;;4985432;28;20038;-80
2022/02/02 22:08:41;;;;;;;52.33;31.90;;;;;;;;;;4988965;28;20039;-80
2022/02/02 22:11:07;;;;;;;65.75;43.08;;;;;;;;;;4993734;28;20037;-80
2022/02/02 22:13:38;;;;;;;68.75;44.38;;;;;;;;;;4980122;28;20681;-80
2022/02/02 22:16:09;;;;;;;55.22;36.40;;;;;;;;;;4989931;28;20038;-80
2022/02/02 22:18:37;;;;;;;48.00;32.93;;;;;;;;;;4991935;28;20048;-79
2022/02/02 22:21:03;;;;;;;52.92;33.35;;;;;;;;;;4974105;28;20031;-80
2022/02/02 22:23:29;;;;;;;60.45;37.28;;;;;;;;;;4971177;28;20465;-79
2022/02/02 22:25:57;;;;;;;56.17;32.33;;;;;;;;;;4991069;28;20062;-79
2022/02/02 22:28:23;;;;;;;60.67;31.83;;;;;;;;;;4992705;28;20026;-80
2022/02/02 22:30:50;;;;;;;58.25;32.97;;;;;;;;;;4982881;28;20062;-80
2022/02/02 22:33:16;;;;;;;44.33;28.85;;;;;;;;;;4977646;28;20030;-80
2022/02/02 22:35:42;;;;;;;47.70;25.45;;;;;;;;;;4992616;28;20785;-80
2022/02/02 22:38:09;;;;;;;30.45;18.45;;;;;;;;;;4982561;28;20031;-80
2022/02/02 22:40:35;;;;;;;49.83;27.10;;;;;;;;;;4983307;28;20022;-80
2022/02/02 22:43:01;;;;;;;27.60;15.38;;;;;;;;;;4973901;28;20070;-80
2022/02/02 22:45:28;;;;;;;34.28;17.40;;;;;;;;;;4984496;28;20023;-80
2022/02/02 22:47:56;;;;;;;37.60;21.98;;;;;;;;;;4979668;28;20026;-79
2022/02/02 22:50:22;;;;;;;62.08;34.83;;;;;;;;;;4992143;28;20030;-80
2022/02/02 22:52:52;;;;;;;39.05;24.08;;;;;;;;;;4987016;28;20049;-79
2022/02/02 22:55:19;;;;;;;41.03;22.92;;;;;;;;;;4972475;28;20504;-79
2022/02/02 22:57:45;;;;;;;44.95;24.92;;;;;;;;;;4978248;28;20043;-80
2022/02/02 23:00:15;;;;;;;67.00;38.63;;;;;;;;;;4972928;28;20653;-80
2022/02/02 23:02:56;;;;;;;43.38;25.77;;;;;;;;;;4976343;28;20034;-80
2022/02/02 23:05:27;;;;;;;41.40;23.90;;;;;;;;;;4991870;28;20026;-80
2022/02/02 23:07:54;;;;;;;43.30;25.23;;;;;;;;;;4981527;28;20040;-80
2022/02/02 23:10:21;;;;;;;67.57;36.42;;;;;;;;;;4992054;28;20038;-80
2022/02/02 23:12:47;;;;;;;42.20;23.70;;;;;;;;;;4988870;28;20487;-80
2022/02/02 23:15:15;;;;;;;43.53;23.55;;;;;;;;;;4979774;28;20073;-80
2022/02/02 23:17:41;;;;;;;69.63;38.33;;;;;;;;;;4980099;28;20034;-79
2022/02/02 23:20:07;;;;;;;64.60;35.80;;;;;;;;;;4991697;28;20037;-80
2022/02/02 23:22:34;;;;;;;45.10;26.58;;;;;;;;;;4984846;28;20038;-80
2022/02/02 23:25:05;;;;;;;42.45;24.63;;;;;;;;;;4991686;28;20496;-80
2022/02/02 23:27:34;;;;;;;41.20;22.92;;;;;;;;;;4991537;28;20030;-80
2022/02/02 23:30:01;;;;;;;40.85;22.30;;;;;;;;;;4987978;28;20027;-80
2022/02/02 23:32:28;;;;;;;41.38;26.02;;;;;;;;;;4985692;28;20039;-80
2022/02/02 23:34:54;;;;;;;41.55;23.35;;;;;;;;;;4985955;28;20030;-79
2022/02/02 23:37:21;;;;;;;48.10;23.90;;;;;;;;;;4988203;28;20038;-81
2022/02/02 23:39:47;;;;;;;58.42;29.45;;;;;;;;;;4991602;28;20124;-80
2022/02/02 23:42:24;;;;;;;52.38;30.25;;;;;;;;;;4987319;28;20039;-80
2022/02/02 23:44:51;;;;;;;68.03;35.55;;;;;;;;;;4975046;28;20018;-80
2022/02/02 23:47:18;;;;;;;123.20;40.92;;;;;;;;;;4988234;28;20475;-80
2022/02/02 23:49:58;;;;;;;65.60;30.10;;;;;;;;;;4991412;28;20072;-80
2022/02/02 23:52:55;;;;;;;69.18;32.10;;;;;;;;;;4986866;28;20090;-80
2022/02/02 23:55:28;;;;;;;61.03;30.20;;;;;;;;;;4970608;28;20138;-80
2022/02/02 23:58:14;;;;;;;62.88;27.17;;;;;;;;;;4975973;28;20520;-80
